Time;durP1;ratioP1;P1;durP2;ratioP2;P2;SDS_P1;SDS_P2;PMS_P1;PMS_P2;Temp;Humidity;BMP_temperature;BMP_pressure;BME280_temperature;BME280_humidity;BME280_pressure;Samples;Min_cycle;Max_cycle;Signal;HPM_P1;HPM_P2
2022/10/18 00:01:58;;;;;;;9.03;7.67;;;;;;;;;;5064482;28;20482;-78
2022/10/18 00:04:24;;;;;;;7.70;6.97;;;;;;;;;;5045189;28;21487;-78
2022/10/18 00:06:50;;;;;;;7.03;6.30;;;;;;;;;;5064679;28;20428;-78
2022/10/18 00:09:16;;;;;;;6.47;5.93;;;;;;;;;;5050974;28;20569;-78
2022/10/18 00:11:42;;;;;;;6.27;5.43;;;;;;;;;;5065265;28;20409;-79
2022/10/18 00:14:08;;;;;;;8.43;6.80;;;;;;;;;;5047649;28;20542;-78
2022/10/18 00:16:34;;;;;;;8.70;6.73;;;;;;;;;;5065146;28;20405;-78
2022/10/18 00:19:00;;;;;;;10.13;7.60;;;;;;;;;;5047524;28;20467;-78
2022/10/18 00:21:26;;;;;;;11.03;6.67;;;;;;;;;;5064799;28;20409;-78
2022/10/18 00:23:53;;;;;;;7.20;6.50;;;;;;;;;;5047114;28;20440;-78
2022/10/18 00:26:20;;;;;;;8.20;7.60;;;;;;;;;;5064740;28;20405;-78
2022/10/18 00:28:49;;;;;;;9.17;7.50;;;;;;;;;;5041221;28;20433;-78
2022/10/18 00:31:16;;;;;;;8.60;7.40;;;;;;;;;;5044572;28;20432;-78
2022/10/18 00:33:43;;;;;;;8.77;7.23;;;;;;;;;;5060174;28;20570;-78
2022/10/18 00:36:09;;;;;;;9.33;6.90;;;;;;;;;;5097056;28;20436;-78
2022/10/18 00:38:36;;;;;;;7.53;6.63;;;;;;;;;;5045880;28;20495;-78
2022/10/18 00:41:02;;;;;;;9.60;8.33;;;;;;;;;;5064537;28;20413;-78
2022/10/18 00:43:28;;;;;;;7.87;7.17;;;;;;;;;;5044375;28;20445;-78
2022/10/18 00:45:54;;;;;;;8.63;6.50;;;;;;;;;;5063925;28;21019;-78
2022/10/18 00:48:20;;;;;;;6.27;5.77;;;;;;;;;;5064723;28;20959;-79
2022/10/18 00:50:47;;;;;;;8.70;6.40;;;;;;;;;;5064092;28;20460;-78
2022/10/18 00:53:15;;;;;;;6.47;6.00;;;;;;;;;;5067451;28;20473;-78
2022/10/18 00:55:41;;;;;;;6.33;5.77;;;;;;;;;;5061448;28;20504;-78
2022/10/18 00:58:07;;;;;;;6.20;5.60;;;;;;;;;;5048373;28;20849;-78
2022/10/18 01:00:37;;;;;;;7.23;6.47;;;;;;;;;;5064381;28;20435;-78
2022/10/18 01:03:04;;;;;;;7.33;5.67;;;;;;;;;;5047634;28;20429;-78
2022/10/18 01:05:30;;;;;;;6.80;6.17;;;;;;;;;;5048804;28;20448;-78
2022/10/18 01:08:08;;;;;;;7.13;6.67;;;;;;;;;;5067386;28;20440;-78
2022/10/18 01:10:34;;;;;;;5.80;5.40;;;;;;;;;;5047167;28;20556;-78
2022/10/18 01:13:00;;;;;;;7.60;5.97;;;;;;;;;;5066761;28;20483;-78
2022/10/18 01:15:28;;;;;;;6.80;6.00;;;;;;;;;;5045678;28;20529;-79
2022/10/18 01:17:54;;;;;;;9.67;6.60;;;;;;;;;;5067131;28;20429;-78
2022/10/18 01:20:44;;;;;;;7.20;6.80;;;;;;;;;;5060546;28;20447;-77
2022/10/18 01:23:15;;;;;;;7.23;6.70;;;;;;;;;;5047401;28;20432;-78
2022/10/18 01:25:43;;;;;;;20.30;8.23;;;;;;;;;;5048324;28;20433;-78
2022/10/18 01:28:12;;;;;;;8.00;7.40;;;;;;;;;;5066536;28;20915;-78
2022/10/18 01:30:39;;;;;;;12.43;7.53;;;;;;;;;;5047244;28;20532;-78
2022/10/18 01:33:10;;;;;;;8.00;7.13;;;;;;;;;;5066773;28;21001;-78
2022/10/18 01:35:39;;;;;;;7.50;6.60;;;;;;;;;;5044547;28;20445;-78
2022/10/18 01:38:07;;;;;;;13.77;8.60;;;;;;;;;;5066926;28;20421;-78
2022/10/18 01:40:34;;;;;;;9.03;7.33;;;;;;;;;;5060745;28;20823;-78
2022/10/18 01:43:00;;;;;;;11.93;7.50;;;;;;;;;;5047347;28;20434;-78
2022/10/18 01:45:27;;;;;;;8.27;6.77;;;;;;;;;;5049425;28;20446;-78
2022/10/18 01:47:54;;;;;;;8.13;7.33;;;;;;;;;;5066570;28;20433;-79
2022/10/18 01:50:27;;;;;;;10.97;7.80;;;;;;;;;;5046302;28;20999;-77
2022/10/18 01:52:54;;;;;;;7.37;6.73;;;;;;;;;;5047355;28;20474;-77
2022/10/18 01:55:24;;;;;;;8.57;7.13;;;;;;;;;;5060375;28;20456;-78
2022/10/18 01:58:04;;;;;;;8.23;7.20;;;;;;;;;;5047300;28;20915;-80
2022/10/18 02:00:50;;;;;;;10.80;6.47;;;;;;;;;;5050032;28;20498;-78
2022/10/18 02:03:20;;;;;;;12.97;7.07;;;;;;;;;;5046320;28;20425;-78
2022/10/18 02:05:58;;;;;;;7.13;6.37;;;;;;;;;;5047616;28;20943;-78
2022/10/18 02:08:38;;;;;;;15.40;12.40;;;;;;;;;;5066388;28;20429;-77
2022/10/18 02:11:09;;;;;;;14.60;10.00;;;;;;;;;;5077641;28;20430;-80
2022/10/18 02:13:37;;;;;;;10.43;7.57;;;;;;;;;;5064156;28;20486;-76
2022/10/18 02:16:05;;;;;;;8.53;7.50;;;;;;;;;;5062809;28;20473;-78
2022/10/18 02:18:40;;;;;;;7.97;6.90;;;;;;;;;;5066208;28;20421;-78
2022/10/18 02:21:07;;;;;;;6.33;5.93;;;;;;;;;;5062718;28;20443;-78
2022/10/18 02:23:34;;;;;;;8.73;6.57;;;;;;;;;;5066568;28;20515;-78
2022/10/18 02:26:00;;;;;;;7.20;5.90;;;;;;;;;;5060534;28;20832;-78
2022/10/18 02:28:26;;;;;;;6.83;6.33;;;;;;;;;;5066203;28;20906;-78
2022/10/18 02:31:02;;;;;;;6.83;6.00;;;;;;;;;;5062048;28;20444;-78
2022/10/18 02:33:46;;;;;;;7.30;6.60;;;;;;;;;;5046077;28;20990;-77
2022/10/18 02:36:15;;;;;;;10.03;8.17;;;;;;;;;;5063546;28;20432;-77
2022/10/18 02:38:41;;;;;;;11.97;8.50;;;;;;;;;;5046336;28;20473;-77
2022/10/18 02:41:07;;;;;;;9.30;7.60;;;;;;;;;;5063669;28;20425;-77
2022/10/18 02:43:34;;;;;;;11.93;9.67;;;;;;;;;;5046768;28;20778;-78
2022/10/18 02:46:00;;;;;;;8.50;7.70;;;;;;;;;;5045378;28;20495;-77
2022/10/18 02:48:26;;;;;;;9.43;8.03;;;;;;;;;;5063828;28;20486;-79
2022/10/18 02:50:52;;;;;;;9.33;7.97;;;;;;;;;;5045426;28;20457;-79
2022/10/18 02:53:18;;;;;;;13.50;7.97;;;;;;;;;;5064806;28;20457;-77
2022/10/18 02:55:44;;;;;;;11.13;8.40;;;;;;;;;;5045445;28;21192;-77
2022/10/18 02:58:10;;;;;;;11.40;7.83;;;;;;;;;;5064944;28;20805;-77
2022/10/18 03:00:36;;;;;;;9.63;6.50;;;;;;;;;;5045711;28;20438;-77
2022/10/18 03:03:02;;;;;;;7.90;6.97;;;;;;;;;;5064799;28;20450;-78
2022/10/18 03:05:28;;;;;;;7.90;7.30;;;;;;;;;;5045125;28;20445;-79
2022/10/18 03:07:56;;;;;;;7.97;7.37;;;;;;;;;;5062729;28;20469;-77
2022/10/18 03:10:22;;;;;;;12.23;8.20;;;;;;;;;;5054829;28;20445;-77
2022/10/18 03:12:48;;;;;;;9.90;6.93;;;;;;;;;;5046154;28;20475;-77
2022/10/18 03:15:14;;;;;;;8.20;7.40;;;;;;;;;;5058165;28;20435;-78
2022/10/18 03:17:40;;;;;;;8.97;7.23;;;;;;;;;;5045811;28;20939;-78
2022/10/18 03:20:06;;;;;;;7.60;6.97;;;;;;;;;;5061381;28;20803;-77
2022/10/18 03:22:32;;;;;;;6.00;5.67;;;;;;;;;;5045936;28;20907;-79
2022/10/18 03:24:58;;;;;;;6.90;6.30;;;;;;;;;;5060816;28;20448;-78
2022/10/18 03:27:24;;;;;;;8.73;6.47;;;;;;;;;;5065353;28;20432;-78
2022/10/18 03:29:50;;;;;;;10.00;8.33;;;;;;;;;;5050149;28;20973;-79
2022/10/18 03:32:16;;;;;;;8.73;6.70;;;;;;;;;;5064938;28;20468;-79
2022/10/18 03:34:42;;;;;;;7.77;7.07;;;;;;;;;;5048717;28;20443;-78
2022/10/18 03:37:08;;;;;;;10.30;7.77;;;;;;;;;;5065110;28;20401;-78
2022/10/18 03:39:34;;;;;;;9.60;8.77;;;;;;;;;;5045327;28;20816;-78
2022/10/18 03:42:00;;;;;;;8.33;7.43;;;;;;;;;;5045202;28;20394;-77
2022/10/18 03:44:26;;;;;;;8.93;8.03;;;;;;;;;;5060548;28;20436;-78
2022/10/18 03:46:52;;;;;;;10.37;9.03;;;;;;;;;;5065454;28;20428;-78
2022/10/18 03:49:18;;;;;;;11.37;8.50;;;;;;;;;;5042295;28;20472;-79
2022/10/18 03:51:44;;;;;;;11.57;8.63;;;;;;;;;;5045132;28;20424;-77
2022/10/18 03:54:10;;;;;;;13.47;8.57;;;;;;;;;;5062264;28;20923;-80
2022/10/18 03:56:36;;;;;;;8.63;7.80;;;;;;;;;;5044322;28;20435;-78
2022/10/18 03:59:03;;;;;;;10.40;8.40;;;;;;;;;;5062177;28;20436;-77
2022/10/18 04:01:29;;;;;;;14.13;12.30;;;;;;;;;;5055166;28;20667;-78
2022/10/18 04:03:55;;;;;;;11.40;8.00;;;;;;;;;;5064613;28;20425;-78
2022/10/18 04:06:21;;;;;;;11.67;10.60;;;;;;;;;;5044042;28;20494;-79
2022/10/18 04:08:47;;;;;;;11.03;9.23;;;;;;;;;;5064420;28;20516;-78
2022/10/18 04:11:13;;;;;;;17.37;11.07;;;;;;;;;;5089654;28;20440;-78
2022/10/18 04:13:39;;;;;;;15.77;10.50;;;;;;;;;;5045318;28;20963;-78
2022/10/18 04:16:05;;;;;;;12.30;10.00;;;;;;;;;;5046250;28;20434;-77
2022/10/18 04:18:31;;;;;;;12.70;8.10;;;;;;;;;;5063957;28;20435;-78
2022/10/18 04:20:57;;;;;;;12.90;10.43;;;;;;;;;;5047492;28;20441;-78
2022/10/18 04:23:23;;;;;;;10.77;9.67;;;;;;;;;;5067936;28;20963;-78
2022/10/18 04:25:50;;;;;;;9.23;7.67;;;;;;;;;;5048412;28;20884;-78
2022/10/18 04:28:16;;;;;;;7.80;7.20;;;;;;;;;;5067733;28;20784;-78
2022/10/18 04:30:42;;;;;;;6.53;6.00;;;;;;;;;;5058242;28;21018;-78
2022/10/18 04:33:08;;;;;;;6.93;5.97;;;;;;;;;;5058599;28;20460;-77
2022/10/18 04:35:34;;;;;;;10.30;7.23;;;;;;;;;;5054233;28;20514;-78
2022/10/18 04:37:59;;;;;;;6.97;6.27;;;;;;;;;;5066479;28;20431;-77
2022/10/18 04:40:25;;;;;;;7.93;7.23;;;;;;;;;;5055395;28;20449;-77
2022/10/18 04:42:51;;;;;;;7.63;6.87;;;;;;;;;;5051247;28;20513;-77
2022/10/18 04:45:17;;;;;;;7.47;6.77;;;;;;;;;;5060285;28;20445;-77
2022/10/18 04:47:43;;;;;;;7.50;7.00;;;;;;;;;;5068079;28;20433;-78
2022/10/18 04:50:09;;;;;;;7.67;6.93;;;;;;;;;;5060840;28;20558;-77
2022/10/18 04:52:35;;;;;;;16.83;9.47;;;;;;;;;;5067807;28;20542;-78
2022/10/18 04:55:01;;;;;;;8.47;7.67;;;;;;;;;;5051616;28;20808;-77
2022/10/18 04:57:27;;;;;;;8.10;7.10;;;;;;;;;;5066468;28;20452;-79
2022/10/18 04:59:53;;;;;;;7.77;6.90;;;;;;;;;;5064004;28;20520;-78
2022/10/18 05:02:19;;;;;;;8.10;7.33;;;;;;;;;;5068008;28;20409;-79
2022/10/18 05:04:45;;;;;;;9.50;8.63;;;;;;;;;;5047067;28;20963;-79
2022/10/18 05:07:11;;;;;;;8.40;7.70;;;;;;;;;;5047627;28;20770;-78
2022/10/18 05:09:37;;;;;;;7.90;7.30;;;;;;;;;;5062880;28;20445;-79
2022/10/18 05:12:03;;;;;;;7.27;6.70;;;;;;;;;;5047452;28;20398;-79
2022/10/18 05:14:29;;;;;;;7.77;7.23;;;;;;;;;;5065011;28;20427;-79
2022/10/18 05:16:55;;;;;;;9.03;8.17;;;;;;;;;;5065581;28;20441;-79
2022/10/18 05:19:21;;;;;;;12.23;9.00;;;;;;;;;;5045875;28;20583;-79
2022/10/18 05:21:47;;;;;;;8.95;8.05;;;;;;;;;;4359984;28;10000668;-79
2022/10/18 05:24:13;;;;;;;10.83;8.60;;;;;;;;;;5059151;28;20690;-79
2022/10/18 05:26:39;;;;;;;14.27;9.57;;;;;;;;;;5059451;28;20440;-79
2022/10/18 05:29:05;;;;;;;9.53;8.40;;;;;;;;;;5055942;28;20444;-78
2022/10/18 05:31:31;;;;;;;10.47;9.53;;;;;;;;;;5058701;28;20514;-79
2022/10/18 05:33:57;;;;;;;10.90;10.00;;;;;;;;;;5063065;28;20483;-78
2022/10/18 05:36:24;;;;;;;8.90;8.00;;;;;;;;;;5054453;28;20463;-78
2022/10/18 05:38:52;;;;;;;13.20;10.40;;;;;;;;;;5060500;28;20962;-78
2022/10/18 05:41:18;;;;;;;12.33;11.03;;;;;;;;;;5053847;28;20963;-78
2022/10/18 05:43:44;;;;;;;13.43;10.37;;;;;;;;;;5059253;28;20555;-78
2022/10/18 05:46:11;;;;;;;13.63;10.83;;;;;;;;;;5052574;28;20456;-79
2022/10/18 05:48:37;;;;;;;9.93;8.97;;;;;;;;;;5063161;28;20817;-78
2022/10/18 05:51:03;;;;;;;11.70;8.53;;;;;;;;;;5053149;28;20448;-77
2022/10/18 05:53:29;;;;;;;10.53;8.60;;;;;;;;;;5055908;28;20792;-80
2022/10/18 05:55:59;;;;;;;9.23;8.20;;;;;;;;;;5062140;28;20444;-79
2022/10/18 05:58:25;;;;;;;12.07;8.93;;;;;;;;;;5065340;28;20417;-78
2022/10/18 06:00:51;;;;;;;9.13;8.20;;;;;;;;;;5075717;28;20495;-79
2022/10/18 06:03:17;;;;;;;14.33;9.30;;;;;;;;;;5065808;28;20515;-80
2022/10/18 06:05:44;;;;;;;9.57;8.60;;;;;;;;;;5054408;28;20438;-78
2022/10/18 06:08:09;;;;;;;10.13;9.03;;;;;;;;;;5065440;28;20428;-78
2022/10/18 06:10:38;;;;;;;10.20;8.83;;;;;;;;;;5083315;28;20440;-79
2022/10/18 06:13:04;;;;;;;12.07;9.50;;;;;;;;;;5066740;28;20464;-78
2022/10/18 06:15:31;;;;;;;11.17;9.13;;;;;;;;;;5053512;28;20444;-79
2022/10/18 06:17:58;;;;;;;12.43;10.43;;;;;;;;;;5044763;28;20799;-79
2022/10/18 06:20:23;;;;;;;14.50;10.17;;;;;;;;;;5061602;28;20437;-78
2022/10/18 06:22:52;;;;;;;14.10;12.10;;;;;;;;;;5066561;28;20802;-79
2022/10/18 06:25:18;;;;;;;15.70;12.20;;;;;;;;;;5042115;28;20444;-77
2022/10/18 06:27:44;;;;;;;14.63;11.73;;;;;;;;;;5046029;28;20546;-79
2022/10/18 06:30:10;;;;;;;17.87;13.20;;;;;;;;;;5061695;28;20823;-79
2022/10/18 06:32:36;;;;;;;21.63;14.40;;;;;;;;;;5066438;28;20460;-79
2022/10/18 06:35:02;;;;;;;16.20;13.30;;;;;;;;;;5074842;28;20453;-79
2022/10/18 06:37:31;;;;;;;23.60;14.67;;;;;;;;;;5045553;28;20527;-79
2022/10/18 06:39:57;;;;;;;21.17;13.23;;;;;;;;;;5061674;28;20670;-79
2022/10/18 06:42:23;;;;;;;19.67;13.60;;;;;;;;;;5065378;28;20682;-78
2022/10/18 06:44:49;;;;;;;18.90;12.70;;;;;;;;;;5043066;28;20789;-79
2022/10/18 06:47:15;;;;;;;13.90;10.47;;;;;;;;;;5065771;28;20409;-79
2022/10/18 06:49:41;;;;;;;12.83;9.30;;;;;;;;;;5082027;28;20471;-78
2022/10/18 06:52:07;;;;;;;19.43;12.57;;;;;;;;;;5044965;28;20466;-78
2022/10/18 06:54:33;;;;;;;18.17;12.30;;;;;;;;;;5065122;28;20583;-80
2022/10/18 06:57:01;;;;;;;19.47;15.70;;;;;;;;;;5063289;28;20448;-78
2022/10/18 06:59:27;;;;;;;18.93;12.17;;;;;;;;;;5045734;28;20948;-78
2022/10/18 07:01:53;;;;;;;14.83;11.40;;;;;;;;;;5044601;28;20839;-78
2022/10/18 07:04:19;;;;;;;15.80;11.00;;;;;;;;;;5064684;28;20510;-79
2022/10/18 07:06:45;;;;;;;18.83;10.97;;;;;;;;;;5060518;28;20449;-78
2022/10/18 07:09:11;;;;;;;10.07;9.10;;;;;;;;;;5045862;28;20823;-79
2022/10/18 07:11:37;;;;;;;13.00;9.73;;;;;;;;;;5047448;28;20446;-78
2022/10/18 07:14:04;;;;;;;12.83;11.23;;;;;;;;;;5064685;28;20473;-79
2022/10/18 07:16:30;;;;;;;18.43;12.00;;;;;;;;;;5044115;28;20432;-79
2022/10/18 07:18:57;;;;;;;14.70;12.50;;;;;;;;;;5064951;28;20461;-79
2022/10/18 07:21:23;;;;;;;19.97;13.27;;;;;;;;;;5044392;28;20457;-78
2022/10/18 07:23:50;;;;;;;18.00;13.80;;;;;;;;;;4710776;28;10000599;-79
2022/10/18 07:26:16;;;;;;;17.67;13.87;;;;;;;;;;5051033;28;20241;-80
2022/10/18 07:28:43;;;;;;;19.77;11.90;;;;;;;;;;5052141;28;20876;-77
2022/10/18 07:31:09;;;;;;;20.87;13.47;;;;;;;;;;5047857;28;20989;-78
2022/10/18 07:33:38;;;;;;;16.33;13.20;;;;;;;;;;5051209;28;20472;-79
2022/10/18 07:36:05;;;;;;;17.43;13.37;;;;;;;;;;5048221;28;20445;-79
2022/10/18 07:38:32;;;;;;;25.73;16.40;;;;;;;;;;5053276;28;20788;-78
2022/10/18 07:40:59;;;;;;;24.20;17.10;;;;;;;;;;5053715;28;20441;-77
2022/10/18 07:43:25;;;;;;;19.17;15.47;;;;;;;;;;5047512;28;20942;-78
2022/10/18 07:45:52;;;;;;;23.40;16.93;;;;;;;;;;5045706;28;20863;-78
2022/10/18 07:48:18;;;;;;;16.27;13.80;;;;;;;;;;5060654;28;20424;-78
2022/10/18 07:50:44;;;;;;;22.00;15.30;;;;;;;;;;5049367;28;20846;-78
2022/10/18 07:53:10;;;;;;;20.90;16.53;;;;;;;;;;5055460;28;20472;-78
2022/10/18 07:55:36;;;;;;;21.17;15.83;;;;;;;;;;5056802;28;20445;-77
2022/10/18 07:58:02;;;;;;;25.77;18.20;;;;;;;;;;5067354;28;20474;-78
2022/10/18 08:00:28;;;;;;;25.77;16.73;;;;;;;;;;5054219;28;20514;-77
2022/10/18 08:02:57;;;;;;;28.20;17.50;;;;;;;;;;5061217;28;20863;-77
2022/10/18 08:05:23;;;;;;;23.37;17.93;;;;;;;;;;5058130;28;21007;-78
2022/10/18 08:07:49;;;;;;;23.73;16.07;;;;;;;;;;5053758;28;20931;-79
2022/10/18 08:10:15;;;;;;;21.63;16.90;;;;;;;;;;5060988;28;20537;-79
2022/10/18 08:12:41;;;;;;;28.00;16.13;;;;;;;;;;5061944;28;20531;-79
2022/10/18 08:15:08;;;;;;;23.03;16.20;;;;;;;;;;5062606;28;20435;-78
2022/10/18 08:17:34;;;;;;;21.47;13.83;;;;;;;;;;5059538;28;20448;-78
2022/10/18 08:20:00;;;;;;;19.03;14.50;;;;;;;;;;5055299;28;20522;-78
2022/10/18 08:22:26;;;;;;;22.00;15.47;;;;;;;;;;5056162;28;20942;-77
2022/10/18 08:24:52;;;;;;;22.30;15.60;;;;;;;;;;5057578;28;20436;-77
2022/10/18 08:27:18;;;;;;;26.00;15.53;;;;;;;;;;5063842;28;20448;-77
2022/10/18 08:29:44;;;;;;;16.30;13.10;;;;;;;;;;5067416;28;20443;-78
2022/10/18 08:32:10;;;;;;;16.37;13.17;;;;;;;;;;5062067;28;20456;-76
2022/10/18 08:34:36;;;;;;;16.10;13.03;;;;;;;;;;5064649;28;20451;-78
2022/10/18 08:37:02;;;;;;;16.30;13.07;;;;;;;;;;5058219;28;20978;-78
2022/10/18 08:39:28;;;;;;;19.33;14.27;;;;;;;;;;5061719;28;20463;-78
2022/10/18 08:42:01;;;;;;;22.50;14.90;;;;;;;;;;5058228;28;20487;-78
2022/10/18 08:44:32;;;;;;;23.60;14.60;;;;;;;;;;5058105;28;20416;-77
2022/10/18 08:47:05;;;;;;;25.80;17.23;;;;;;;;;;5060097;28;20447;-76
2022/10/18 08:49:46;;;;;;;25.40;16.40;;;;;;;;;;5065958;28;20509;-77
2022/10/18 08:52:33;;;;;;;25.53;16.80;;;;;;;;;;5053871;28;20424;-78
2022/10/18 08:55:04;;;;;;;24.07;16.47;;;;;;;;;;5054241;28;20539;-78
2022/10/18 08:57:31;;;;;;;28.17;17.50;;;;;;;;;;5067690;28;20855;-78
2022/10/18 08:59:57;;;;;;;25.70;17.10;;;;;;;;;;5070371;28;20747;-79
2022/10/18 09:02:28;;;;;;;23.57;16.50;;;;;;;;;;5068868;28;20470;-77
2022/10/18 09:05:03;;;;;;;28.53;18.20;;;;;;;;;;5071215;28;20427;-78
2022/10/18 09:07:32;;;;;;;25.07;16.60;;;;;;;;;;5062092;28;20436;-80
2022/10/18 09:10:01;;;;;;;26.03;18.20;;;;;;;;;;5079632;28;20458;-79
2022/10/18 09:12:46;;;;;;;28.33;18.47;;;;;;;;;;5057385;28;20453;-78
2022/10/18 09:15:21;;;;;;;27.03;18.70;;;;;;;;;;5064285;28;21158;-79
2022/10/18 09:18:06;;;;;;;30.47;20.00;;;;;;;;;;5067197;28;20541;-79
2022/10/18 09:20:35;;;;;;;32.77;17.50;;;;;;;;;;5047917;28;20448;-79
2022/10/18 09:23:27;;;;;;;28.70;19.03;;;;;;;;;;5067412;28;20784;-79
2022/10/18 09:25:55;;;;;;;46.83;24.37;;;;;;;;;;5049323;28;20471;-78
2022/10/18 09:28:33;;;;;;;41.33;25.23;;;;;;;;;;5067020;28;20397;-79
2022/10/18 09:31:12;;;;;;;60.27;32.90;;;;;;;;;;5075847;28;20548;-78
2022/10/18 09:33:54;;;;;;;60.47;33.27;;;;;;;;;;5047071;28;20454;-78
2022/10/18 09:36:25;;;;;;;75.90;34.23;;;;;;;;;;5063193;28;20449;-80
2022/10/18 09:38:53;;;;;;;48.27;29.67;;;;;;;;;;5046972;28;20790;-80
2022/10/18 09:41:23;;;;;;;53.00;31.13;;;;;;;;;;5062951;28;20425;-80
2022/10/18 09:43:51;;;;;;;55.30;33.87;;;;;;;;;;5067284;28;20484;-81
2022/10/18 09:46:26;;;;;;;51.33;31.87;;;;;;;;;;5049238;28;20791;-80
2022/10/18 09:49:01;;;;;;;52.00;30.70;;;;;;;;;;5053583;28;20459;-78
2022/10/18 09:51:38;;;;;;;47.80;28.63;;;;;;;;;;5053761;28;20749;-77
2022/10/18 09:54:15;;;;;;;52.00;29.40;;;;;;;;;;5046622;28;20469;-79
2022/10/18 09:56:47;;;;;;;49.37;30.47;;;;;;;;;;5050026;28;20430;-79
2022/10/18 09:59:31;;;;;;;37.13;28.20;;;;;;;;;;5044400;28;20418;-78
2022/10/18 10:01:57;;;;;;;46.40;29.33;;;;;;;;;;4706981;28;10000662;-78
2022/10/18 10:04:23;;;;;;;40.10;28.90;;;;;;;;;;5054276;28;20413;-78
2022/10/18 10:06:51;;;;;;;45.30;31.33;;;;;;;;;;5045282;28;20829;-79
2022/10/18 10:11:54;;;;;;;45.60;32.73;;;;;;;;;;5021979;28;20568;-91
2022/10/18 10:14:25;;;;;;;44.87;29.60;;;;;;;;;;5009748;28;20471;-92
2022/10/18 10:16:51;;;;;;;51.13;30.20;;;;;;;;;;5026247;28;20460;-89
2022/10/18 10:19:34;;;;;;;43.23;28.90;;;;;;;;;;5029081;28;20435;-90
2022/10/18 10:22:11;;;;;;;40.47;28.60;;;;;;;;;;5020987;28;20502;-90
2022/10/18 10:24:44;;;;;;;38.40;27.40;;;;;;;;;;5027223;28;20489;-89
2022/10/18 10:27:29;;;;;;;35.93;25.47;;;;;;;;;;5023927;28;20451;-89
2022/10/18 10:30:00;;;;;;;36.97;26.93;;;;;;;;;;5034033;28;20979;-89
2022/10/18 10:32:28;;;;;;;37.33;26.30;;;;;;;;;;5025350;28;20828;-89
2022/10/18 10:34:54;;;;;;;35.30;26.00;;;;;;;;;;5034671;28;20431;-90
2022/10/18 10:37:23;;;;;;;34.33;25.50;;;;;;;;;;5029447;28;20886;-89
2022/10/18 10:40:09;;;;;;;33.50;25.93;;;;;;;;;;5030573;28;20549;-90
2022/10/18 10:42:37;;;;;;;28.43;22.30;;;;;;;;;;5007721;28;20517;-90
2022/10/18 10:45:12;;;;;;;25.20;22.03;;;;;;;;;;5013673;28;20427;-89
2022/10/18 10:47:38;;;;;;;25.90;22.10;;;;;;;;;;5013303;28;20539;-90
2022/10/18 10:50:11;;;;;;;27.87;23.93;;;;;;;;;;5021356;28;20432;-90
2022/10/18 10:52:39;;;;;;;24.03;21.60;;;;;;;;;;5007883;28;20502;-91
2022/10/18 10:55:18;;;;;;;26.87;22.80;;;;;;;;;;4981348;28;20527;-91
2022/10/18 10:57:54;;;;;;;23.30;20.87;;;;;;;;;;5010411;28;20573;-91
2022/10/18 11:00:36;;;;;;;24.57;21.47;;;;;;;;;;5010431;28;20807;-90
2022/10/18 11:03:06;;;;;;;28.13;22.40;;;;;;;;;;5011354;28;21048;-92
2022/10/18 11:05:41;;;;;;;31.03;22.80;;;;;;;;;;5019025;28;20432;-91
2022/10/18 11:08:09;;;;;;;25.73;22.53;;;;;;;;;;4677073;28;10000045;-92
2022/10/18 11:10:38;;;;;;;26.97;22.63;;;;;;;;;;5004002;28;20225;-92
2022/10/18 11:13:04;;;;;;;23.40;20.90;;;;;;;;;;5005383;28;20999;-92
2022/10/18 11:15:41;;;;;;;22.30;20.07;;;;;;;;;;5025452;28;20435;-92
2022/10/18 11:18:18;;;;;;;23.77;21.27;;;;;;;;;;4985138;28;20431;-86
2022/10/18 11:20:54;;;;;;;21.77;19.77;;;;;;;;;;4992457;28;20431;-90
2022/10/18 11:23:23;;;;;;;24.03;21.57;;;;;;;;;;5003043;28;20629;-88
2022/10/18 11:26:02;;;;;;;22.07;19.87;;;;;;;;;;5004106;28;20471;-90
2022/10/18 11:28:47;;;;;;;22.03;19.97;;;;;;;;;;5012832;28;20474;-92
2022/10/18 11:31:21;;;;;;;22.53;20.20;;;;;;;;;;5006230;28;20447;-92
2022/10/18 11:34:14;;;;;;;25.67;21.70;;;;;;;;;;5005954;28;20415;-89
2022/10/18 11:36:40;;;;;;;26.63;23.83;;;;;;;;;;4991905;28;20660;-91
2022/10/18 11:39:22;;;;;;;25.60;22.77;;;;;;;;;;5021330;28;20432;-91
2022/10/18 11:41:53;;;;;;;27.57;22.17;;;;;;;;;;5016596;28;20455;-90
2022/10/18 11:44:19;;;;;;;25.70;22.07;;;;;;;;;;5018622;28;20477;-88
2022/10/18 11:46:51;;;;;;;27.40;24.53;;;;;;;;;;5013925;28;20585;-90
2022/10/18 11:49:26;;;;;;;28.80;22.97;;;;;;;;;;4997606;28;20426;-88
2022/10/18 11:51:57;;;;;;;26.53;23.70;;;;;;;;;;5014125;28;20439;-90
2022/10/18 11:54:23;;;;;;;23.93;21.43;;;;;;;;;;5024920;22;20405;-75
2022/10/18 11:56:55;;;;;;;27.17;23.70;;;;;;;;;;5028045;28;20957;-78
2022/10/18 11:59:26;;;;;;;26.13;23.43;;;;;;;;;;5039108;28;20462;-77
2022/10/18 12:02:12;;;;;;;23.13;20.87;;;;;;;;;;5028470;28;20921;-79
2022/10/18 12:04:41;;;;;;;24.73;22.27;;;;;;;;;;5032145;28;20448;-78
2022/10/18 12:07:11;;;;;;;22.40;20.17;;;;;;;;;;5026092;28;20441;-79
2022/10/18 12:09:42;;;;;;;24.30;22.10;;;;;;;;;;5030599;28;20521;-78
2022/10/18 12:12:10;;;;;;;21.43;19.33;;;;;;;;;;5031362;28;20434;-79
2022/10/18 12:14:40;;;;;;;21.20;19.27;;;;;;;;;;5043766;28;20449;-79
2022/10/18 12:17:38;;;;;;;24.87;19.20;;;;;;;;;;5038217;28;20434;-80
2022/10/18 12:20:10;;;;;;;18.80;16.80;;;;;;;;;;5011214;28;20433;-79
2022/10/18 12:22:36;;;;;;;17.30;15.63;;;;;;;;;;5033714;28;21118;-77
2022/10/18 12:25:03;;;;;;;15.47;14.00;;;;;;;;;;5024696;28;20928;-77
2022/10/18 12:27:36;;;;;;;14.90;12.80;;;;;;;;;;5027493;28;20438;-78
2022/10/18 12:30:06;;;;;;;15.60;14.13;;;;;;;;;;5061286;28;20465;-78
2022/10/18 12:32:34;;;;;;;14.93;13.77;;;;;;;;;;5033555;28;21019;-77
2022/10/18 12:35:03;;;;;;;15.90;14.40;;;;;;;;;;5044542;28;20430;-77
2022/10/18 12:37:45;;;;;;;13.90;12.63;;;;;;;;;;5021143;28;20453;-78
2022/10/18 12:40:14;;;;;;;18.00;15.10;;;;;;;;;;5042410;28;20479;-79
2022/10/18 12:42:42;;;;;;;15.70;13.37;;;;;;;;;;5035876;28;20480;-78
2022/10/18 12:45:14;;;;;;;17.17;15.57;;;;;;;;;;5058440;28;20432;-79
2022/10/18 12:47:40;;;;;;;18.97;16.73;;;;;;;;;;5045722;28;21151;-78
2022/10/18 12:50:22;;;;;;;22.17;19.97;;;;;;;;;;5027675;28;20426;-78
2022/10/18 12:53:01;;;;;;;22.33;20.03;;;;;;;;;;5025373;28;20763;-78
2022/10/18 12:55:29;;;;;;;20.30;18.30;;;;;;;;;;5038222;28;20456;-78
2022/10/18 12:57:58;;;;;;;18.77;16.90;;;;;;;;;;5033594;28;20453;-79
2022/10/18 13:00:31;;;;;;;19.50;17.70;;;;;;;;;;5030303;28;20410;-79
2022/10/18 13:03:10;;;;;;;19.30;17.30;;;;;;;;;;5029831;28;20466;-78
2022/10/18 13:05:49;;;;;;;20.93;16.23;;;;;;;;;;5046860;28;20425;-77
2022/10/18 13:08:25;;;;;;;19.63;16.27;;;;;;;;;;5041366;28;20833;-78
2022/10/18 13:11:11;;;;;;;19.20;16.20;;;;;;;;;;5028003;28;20421;-78
2022/10/18 13:13:43;;;;;;;16.40;14.70;;;;;;;;;;5027507;28;20423;-77
2022/10/18 13:16:12;;;;;;;18.33;14.53;;;;;;;;;;5041098;28;20847;-76
2022/10/18 13:18:47;;;;;;;15.40;12.13;;;;;;;;;;5047177;28;20831;-78
2022/10/18 13:21:34;;;;;;;13.50;10.60;;;;;;;;;;5023856;28;20410;-78
2022/10/18 13:24:00;;;;;;;10.27;9.10;;;;;;;;;;5027585;28;20458;-79
2022/10/18 13:26:47;;;;;;;11.13;10.13;;;;;;;;;;5042797;28;20936;-78
2022/10/18 13:29:13;;;;;;;14.23;11.47;;;;;;;;;;5045131;28;20493;-77
2022/10/18 13:31:45;;;;;;;12.77;11.50;;;;;;;;;;5028030;28;20430;-80
2022/10/18 13:34:23;;;;;;;11.30;10.00;;;;;;;;;;5045896;28;20501;-78
2022/10/18 13:37:06;;;;;;;12.13;10.93;;;;;;;;;;5028270;28;20450;-79
2022/10/18 13:39:32;;;;;;;10.03;9.03;;;;;;;;;;5045277;28;20446;-79
2022/10/18 13:41:59;;;;;;;12.40;9.90;;;;;;;;;;5023169;28;20469;-79
2022/10/18 13:44:27;;;;;;;11.07;9.27;;;;;;;;;;5024897;28;20556;-77
2022/10/18 13:46:56;;;;;;;10.83;9.73;;;;;;;;;;5041941;28;20425;-79
2022/10/18 13:49:40;;;;;;;10.80;9.80;;;;;;;;;;5046572;28;20390;-77
2022/10/18 13:52:25;;;;;;;13.57;9.37;;;;;;;;;;5021594;28;20457;-79
2022/10/18 13:55:10;;;;;;;15.10;8.27;;;;;;;;;;5041730;28;20465;-79
2022/10/18 13:57:51;;;;;;;10.87;7.20;;;;;;;;;;5023081;28;20521;-76
2022/10/18 14:00:36;;;;;;;12.07;8.00;;;;;;;;;;5025853;28;20958;-77
2022/10/18 14:03:21;;;;;;;14.63;7.97;;;;;;;;;;5035589;28;20466;-78
2022/10/18 14:05:47;;;;;;;14.63;7.00;;;;;;;;;;5026509;28;20782;-78
2022/10/18 14:08:17;;;;;;;10.50;7.10;;;;;;;;;;5026186;28;20447;-77
2022/10/18 14:11:01;;;;;;;4.10;3.80;;;;;;;;;;5045726;28;20915;-77
2022/10/18 14:13:33;;;;;;;7.20;4.73;;;;;;;;;;5023318;28;20472;-78
2022/10/18 14:16:05;;;;;;;3.30;3.10;;;;;;;;;;5043460;28;20493;-79
2022/10/18 14:18:33;;;;;;;5.50;2.80;;;;;;;;;;5039928;28;20445;-79
2022/10/18 14:21:01;;;;;;;5.53;3.50;;;;;;;;;;5025874;28;20523;-77
2022/10/18 14:23:30;;;;;;;5.30;3.47;;;;;;;;;;5024630;28;20558;-81
2022/10/18 14:26:09;;;;;;;6.27;4.20;;;;;;;;;;5045487;28;20566;-79
2022/10/18 14:28:35;;;;;;;5.63;3.90;;;;;;;;;;5040418;28;20440;-81
2022/10/18 14:31:05;;;;;;;4.07;2.10;;;;;;;;;;5024607;28;20572;-80
2022/10/18 14:33:37;;;;;;;2.90;2.50;;;;;;;;;;5024778;28;20435;-79
2022/10/18 14:36:05;;;;;;;3.47;3.00;;;;;;;;;;5044784;28;20475;-79
2022/10/18 14:38:32;;;;;;;2.23;2.03;;;;;;;;;;5022213;28;20434;-77
2022/10/18 14:41:14;;;;;;;9.20;2.83;;;;;;;;;;5044674;28;20466;-77
2022/10/18 14:43:40;;;;;;;4.33;2.73;;;;;;;;;;5040623;28;20493;-78